sensor_id;sensor_type;location;lat;lon;timestamp;P1;durP1;ratioP1;P2;durP2;ratioP2
14342;SDS011;7255;53.596;9.960;2023-08-06T00:01:34;2.40;;;1.65;;
14342;SDS011;7255;53.596;9.960;2023-08-06T00:04:00;1.77;;;1.62;;
14342;SDS011;7255;53.596;9.960;2023-08-06T00:06:26;1.52;;;1.42;;
14342;SDS011;7255;53.596;9.960;2023-08-06T00:08:54;2.45;;;1.65;;
14342;SDS011;7255;53.596;9.960;2023-08-06T00:11:20;1.80;;;1.70;;
14342;SDS011;7255;53.596;9.960;2023-08-06T00:13:47;2.22;;;1.90;;
14342;SDS011;7255;53.596;9.960;2023-08-06T00:16:13;3.08;;;1.62;;
14342;SDS011;7255;53.596;9.960;2023-08-06T00:18:40;3.30;;;1.90;;
14342;SDS011;7255;53.596;9.960;2023-08-06T00:21:06;3.05;;;1.83;;
14342;SDS011;7255;53.596;9.960;2023-08-06T00:23:33;2.17;;;1.98;;
14342;SDS011;7255;53.596;9.960;2023-08-06T00:26:00;2.58;;;2.12;;
14342;SDS011;7255;53.596;9.960;2023-08-06T00:28:26;2.42;;;2.08;;
14342;SDS011;7255;53.596;9.960;2023-08-06T00:30:53;2.70;;;2.10;;
14342;SDS011;7255;53.596;9.960;2023-08-06T00:33:19;2.37;;;1.70;;
14342;SDS011;7255;53.596;9.960;2023-08-06T00:35:46;2.97;;;1.92;;
14342;SDS011;7255;53.596;9.960;2023-08-06T00:38:12;2.10;;;1.90;;
14342;SDS011;7255;53.596;9.960;2023-08-06T00:40:38;3.78;;;2.40;;
14342;SDS011;7255;53.596;9.960;2023-08-06T00:43:06;2.92;;;2.40;;
14342;SDS011;7255;53.596;9.960;2023-08-06T00:45:33;2.50;;;2.30;;
14342;SDS011;7255;53.596;9.960;2023-08-06T00:48:01;3.05;;;2.75;;
14342;SDS011;7255;53.596;9.960;2023-08-06T00:50:29;2.42;;;2.20;;
14342;SDS011;7255;53.596;9.960;2023-08-06T00:52:55;2.92;;;2.60;;
14342;SDS011;7255;53.596;9.960;2023-08-06T00:55:22;3.22;;;2.92;;
14342;SDS011;7255;53.596;9.960;2023-08-06T00:57:48;3.67;;;3.05;;
14342;SDS011;7255;53.596;9.960;2023-08-06T01:00:17;5.47;;;2.95;;
14342;SDS011;7255;53.596;9.960;2023-08-06T01:02:45;4.57;;;3.22;;
14342;SDS011;7255;53.596;9.960;2023-08-06T01:05:12;3.30;;;3.00;;
14342;SDS011;7255;53.596;9.960;2023-08-06T01:07:41;4.35;;;3.22;;
14342;SDS011;7255;53.596;9.960;2023-08-06T01:10:23;3.70;;;3.30;;
14342;SDS011;7255;53.596;9.960;2023-08-06T01:12:59;4.50;;;3.50;;
14342;SDS011;7255;53.596;9.960;2023-08-06T01:15:38;4.18;;;3.25;;
14342;SDS011;7255;53.596;9.960;2023-08-06T01:18:10;4.47;;;2.97;;
14342;SDS011;7255;53.596;9.960;2023-08-06T01:20:38;5.07;;;3.65;;
14342;SDS011;7255;53.596;9.960;2023-08-06T01:23:04;4.60;;;3.87;;
14342;SDS011;7255;53.596;9.960;2023-08-06T01:25:33;4.87;;;3.85;;
14342;SDS011;7255;53.596;9.960;2023-08-06T01:28:04;3.80;;;3.45;;
14342;SDS011;7255;53.596;9.960;2023-08-06T01:30:37;4.68;;;3.28;;
14342;SDS011;7255;53.596;9.960;2023-08-06T01:33:07;3.70;;;3.37;;
14342;SDS011;7255;53.596;9.960;2023-08-06T01:35:40;5.28;;;3.55;;
14342;SDS011;7255;53.596;9.960;2023-08-06T01:38:07;3.97;;;3.50;;
14342;SDS011;7255;53.596;9.960;2023-08-06T01:40:33;6.32;;;3.60;;
14342;SDS011;7255;53.596;9.960;2023-08-06T01:43:00;5.20;;;3.80;;
14342;SDS011;7255;53.596;9.960;2023-08-06T01:45:26;5.10;;;3.80;;
14342;SDS011;7255;53.596;9.960;2023-08-06T01:47:53;4.32;;;3.62;;
14342;SDS011;7255;53.596;9.960;2023-08-06T01:50:19;4.18;;;3.30;;
14342;SDS011;7255;53.596;9.960;2023-08-06T01:52:46;4.90;;;4.03;;
14342;SDS011;7255;53.596;9.960;2023-08-06T01:55:13;4.57;;;3.40;;
14342;SDS011;7255;53.596;9.960;2023-08-06T01:57:39;5.40;;;3.58;;
14342;SDS011;7255;53.596;9.960;2023-08-06T02:00:06;4.10;;;3.70;;
14342;SDS011;7255;53.596;9.960;2023-08-06T02:02:33;5.40;;;3.78;;
14342;SDS011;7255;53.596;9.960;2023-08-06T02:04:59;5.75;;;4.18;;
14342;SDS011;7255;53.596;9.960;2023-08-06T02:07:26;5.10;;;3.55;;
14342;SDS011;7255;53.596;9.960;2023-08-06T02:09:53;4.50;;;3.58;;
14342;SDS011;7255;53.596;9.960;2023-08-06T02:12:19;3.85;;;3.45;;
14342;SDS011;7255;53.596;9.960;2023-08-06T02:14:46;5.53;;;3.30;;
14342;SDS011;7255;53.596;9.960;2023-08-06T02:17:12;5.30;;;3.58;;
14342;SDS011;7255;53.596;9.960;2023-08-06T02:19:38;3.55;;;3.25;;
14342;SDS011;7255;53.596;9.960;2023-08-06T02:22:05;4.97;;;3.95;;
14342;SDS011;7255;53.596;9.960;2023-08-06T02:24:31;3.97;;;3.45;;
14342;SDS011;7255;53.596;9.960;2023-08-06T02:26:59;5.43;;;3.50;;
14342;SDS011;7255;53.596;9.960;2023-08-06T02:29:25;5.85;;;3.67;;
14342;SDS011;7255;53.596;9.960;2023-08-06T02:31:51;6.32;;;4.32;;
14342;SDS011;7255;53.596;9.960;2023-08-06T02:34:17;3.83;;;3.42;;
14342;SDS011;7255;53.596;9.960;2023-08-06T02:36:44;4.07;;;3.67;;
14342;SDS011;7255;53.596;9.960;2023-08-06T02:39:10;5.95;;;4.40;;
14342;SDS011;7255;53.596;9.960;2023-08-06T02:41:36;4.87;;;3.78;;
14342;SDS011;7255;53.596;9.960;2023-08-06T02:44:04;6.72;;;3.62;;
14342;SDS011;7255;53.596;9.960;2023-08-06T02:46:30;6.05;;;4.55;;
14342;SDS011;7255;53.596;9.960;2023-08-06T02:48:57;5.93;;;3.50;;
14342;SDS011;7255;53.596;9.960;2023-08-06T02:51:23;6.37;;;4.28;;
14342;SDS011;7255;53.596;9.960;2023-08-06T02:53:49;4.55;;;3.83;;
14342;SDS011;7255;53.596;9.960;2023-08-06T02:56:15;4.30;;;3.80;;
14342;SDS011;7255;53.596;9.960;2023-08-06T02:58:42;6.12;;;4.05;;
14342;SDS011;7255;53.596;9.960;2023-08-06T03:01:09;4.28;;;3.47;;
14342;SDS011;7255;53.596;9.960;2023-08-06T03:03:35;6.75;;;4.18;;
14342;SDS011;7255;53.596;9.960;2023-08-06T03:06:02;5.15;;;4.20;;
14342;SDS011;7255;53.596;9.960;2023-08-06T03:08:28;5.97;;;3.80;;
14342;SDS011;7255;53.596;9.960;2023-08-06T03:10:54;5.93;;;3.60;;
14342;SDS011;7255;53.596;9.960;2023-08-06T03:13:21;6.50;;;4.05;;
14342;SDS011;7255;53.596;9.960;2023-08-06T03:15:53;4.18;;;3.62;;
14342;SDS011;7255;53.596;9.960;2023-08-06T03:18:21;5.37;;;3.92;;
14342;SDS011;7255;53.596;9.960;2023-08-06T03:20:47;6.53;;;3.70;;
14342;SDS011;7255;53.596;9.960;2023-08-06T03:23:14;4.70;;;3.75;;
14342;SDS011;7255;53.596;9.960;2023-08-06T03:25:40;4.60;;;3.30;;
14342;SDS011;7255;53.596;9.960;2023-08-06T03:28:06;6.85;;;3.70;;
14342;SDS011;7255;53.596;9.960;2023-08-06T03:30:33;4.85;;;3.70;;
14342;SDS011;7255;53.596;9.960;2023-08-06T03:32:59;4.30;;;3.90;;
14342;SDS011;7255;53.596;9.960;2023-08-06T03:35:27;4.70;;;3.67;;
14342;SDS011;7255;53.596;9.960;2023-08-06T03:37:53;5.22;;;3.92;;
14342;SDS011;7255;53.596;9.960;2023-08-06T03:40:19;3.78;;;3.20;;
14342;SDS011;7255;53.596;9.960;2023-08-06T03:42:46;5.10;;;4.32;;
14342;SDS011;7255;53.596;9.960;2023-08-06T03:45:12;4.78;;;3.45;;
14342;SDS011;7255;53.596;9.960;2023-08-06T03:47:38;4.93;;;3.62;;
14342;SDS011;7255;53.596;9.960;2023-08-06T03:50:05;6.87;;;4.12;;
14342;SDS011;7255;53.596;9.960;2023-08-06T03:52:33;4.28;;;3.47;;
14342;SDS011;7255;53.596;9.960;2023-08-06T03:54:59;4.55;;;3.58;;
14342;SDS011;7255;53.596;9.960;2023-08-06T03:57:25;4.00;;;3.33;;
14342;SDS011;7255;53.596;9.960;2023-08-06T03:59:51;4.60;;;3.75;;
14342;SDS011;7255;53.596;9.960;2023-08-06T04:02:20;5.07;;;3.92;;
14342;SDS011;7255;53.596;9.960;2023-08-06T04:04:46;4.72;;;3.65;;
14342;SDS011;7255;53.596;9.960;2023-08-06T04:07:13;4.05;;;3.62;;
14342;SDS011;7255;53.596;9.960;2023-08-06T04:09:52;4.37;;;3.78;;
14342;SDS011;7255;53.596;9.960;2023-08-06T04:12:19;4.90;;;3.85;;
14342;SDS011;7255;53.596;9.960;2023-08-06T04:14:45;5.30;;;3.97;;
14342;SDS011;7255;53.596;9.960;2023-08-06T04:17:11;5.90;;;4.15;;
14342;SDS011;7255;53.596;9.960;2023-08-06T04:19:37;6.62;;;3.92;;
14342;SDS011;7255;53.596;9.960;2023-08-06T04:22:04;5.28;;;3.92;;
14342;SDS011;7255;53.596;9.960;2023-08-06T04:24:30;7.95;;;4.32;;
14342;SDS011;7255;53.596;9.960;2023-08-06T04:26:58;4.57;;;4.03;;
14342;SDS011;7255;53.596;9.960;2023-08-06T04:29:24;4.90;;;3.22;;
14342;SDS011;7255;53.596;9.960;2023-08-06T04:31:50;5.85;;;3.83;;
14342;SDS011;7255;53.596;9.960;2023-08-06T04:34:17;12.93;;;4.25;;
14342;SDS011;7255;53.596;9.960;2023-08-06T04:36:43;4.87;;;3.65;;
14342;SDS011;7255;53.596;9.960;2023-08-06T04:39:09;6.93;;;3.97;;
14342;SDS011;7255;53.596;9.960;2023-08-06T04:41:36;4.82;;;3.78;;
14342;SDS011;7255;53.596;9.960;2023-08-06T04:44:03;6.03;;;4.32;;
14342;SDS011;7255;53.596;9.960;2023-08-06T04:46:30;5.90;;;4.18;;
14342;SDS011;7255;53.596;9.960;2023-08-06T04:48:56;6.72;;;3.80;;
14342;SDS011;7255;53.596;9.960;2023-08-06T04:51:22;5.45;;;3.47;;
14342;SDS011;7255;53.596;9.960;2023-08-06T04:53:49;4.30;;;3.55;;
14342;SDS011;7255;53.596;9.960;2023-08-06T04:56:15;5.00;;;4.20;;
14342;SDS011;7255;53.596;9.960;2023-08-06T04:58:41;5.30;;;3.60;;
14342;SDS011;7255;53.596;9.960;2023-08-06T05:01:09;7.18;;;3.83;;
14342;SDS011;7255;53.596;9.960;2023-08-06T05:03:35;4.20;;;3.55;;
14342;SDS011;7255;53.596;9.960;2023-08-06T05:06:01;4.70;;;3.78;;
14342;SDS011;7255;53.596;9.960;2023-08-06T05:08:28;8.93;;;4.28;;
14342;SDS011;7255;53.596;9.960;2023-08-06T05:10:54;6.15;;;3.60;;
14342;SDS011;7255;53.596;9.960;2023-08-06T05:13:20;6.70;;;4.03;;
14342;SDS011;7255;53.596;9.960;2023-08-06T05:15:47;6.07;;;4.47;;
14342;SDS011;7255;53.596;9.960;2023-08-06T05:18:14;5.70;;;3.97;;
14342;SDS011;7255;53.596;9.960;2023-08-06T05:20:41;7.87;;;4.37;;
14342;SDS011;7255;53.596;9.960;2023-08-06T05:23:08;7.65;;;4.40;;
14342;SDS011;7255;53.596;9.960;2023-08-06T05:25:34;5.10;;;4.28;;
14342;SDS011;7255;53.596;9.960;2023-08-06T05:28:01;10.90;;;4.72;;
14342;SDS011;7255;53.596;9.960;2023-08-06T05:30:27;7.57;;;4.00;;
14342;SDS011;7255;53.596;9.960;2023-08-06T05:32:54;11.63;;;4.12;;
14342;SDS011;7255;53.596;9.960;2023-08-06T05:35:22;6.10;;;4.00;;
14342;SDS011;7255;53.596;9.960;2023-08-06T05:37:49;4.43;;;3.90;;
14342;SDS011;7255;53.596;9.960;2023-08-06T05:40:16;5.65;;;3.87;;
14342;SDS011;7255;53.596;9.960;2023-08-06T05:42:42;9.20;;;4.12;;
14342;SDS011;7255;53.596;9.960;2023-08-06T05:45:09;5.62;;;4.53;;
14342;SDS011;7255;53.596;9.960;2023-08-06T05:47:35;5.57;;;4.15;;
14342;SDS011;7255;53.596;9.960;2023-08-06T05:50:02;5.45;;;4.30;;
14342;SDS011;7255;53.596;9.960;2023-08-06T05:52:30;11.48;;;5.00;;
14342;SDS011;7255;53.596;9.960;2023-08-06T05:54:56;7.53;;;4.65;;
14342;SDS011;7255;53.596;9.960;2023-08-06T05:57:22;6.68;;;4.30;;
14342;SDS011;7255;53.596;9.960;2023-08-06T05:59:48;5.80;;;4.32;;
14342;SDS011;7255;53.596;9.960;2023-08-06T06:02:15;5.95;;;4.20;;
14342;SDS011;7255;53.596;9.960;2023-08-06T06:04:43;6.05;;;4.43;;
14342;SDS011;7255;53.596;9.960;2023-08-06T06:07:09;7.70;;;4.28;;
14342;SDS011;7255;53.596;9.960;2023-08-06T06:09:37;5.72;;;4.75;;
14342;SDS011;7255;53.596;9.960;2023-08-06T06:12:04;6.62;;;4.53;;
14342;SDS011;7255;53.596;9.960;2023-08-06T06:14:31;6.53;;;4.47;;
14342;SDS011;7255;53.596;9.960;2023-08-06T06:16:58;6.32;;;4.35;;
14342;SDS011;7255;53.596;9.960;2023-08-06T06:19:25;6.12;;;4.55;;
14342;SDS011;7255;53.596;9.960;2023-08-06T06:21:52;5.37;;;4.18;;
14342;SDS011;7255;53.596;9.960;2023-08-06T06:24:22;5.22;;;4.25;;
14342;SDS011;7255;53.596;9.960;2023-08-06T06:26:50;5.50;;;4.37;;
14342;SDS011;7255;53.596;9.960;2023-08-06T06:29:16;8.70;;;4.95;;
14342;SDS011;7255;53.596;9.960;2023-08-06T06:31:42;8.05;;;4.75;;
14342;SDS011;7255;53.596;9.960;2023-08-06T06:34:09;6.90;;;4.12;;
14342;SDS011;7255;53.596;9.960;2023-08-06T06:36:35;6.20;;;4.62;;
14342;SDS011;7255;53.596;9.960;2023-08-06T06:39:01;6.68;;;4.25;;
14342;SDS011;7255;53.596;9.960;2023-08-06T06:41:27;12.68;;;5.05;;
14342;SDS011;7255;53.596;9.960;2023-08-06T06:43:57;8.38;;;4.35;;
14342;SDS011;7255;53.596;9.960;2023-08-06T06:46:24;7.37;;;4.75;;
14342;SDS011;7255;53.596;9.960;2023-08-06T06:48:50;9.65;;;4.82;;
14342;SDS011;7255;53.596;9.960;2023-08-06T06:51:16;6.75;;;5.40;;
14342;SDS011;7255;53.596;9.960;2023-08-06T06:53:43;5.15;;;3.90;;
14342;SDS011;7255;53.596;9.960;2023-08-06T06:56:09;7.90;;;5.18;;
14342;SDS011;7255;53.596;9.960;2023-08-06T06:58:35;7.70;;;4.82;;
14342;SDS011;7255;53.596;9.960;2023-08-06T07:01:05;9.15;;;4.78;;
14342;SDS011;7255;53.596;9.960;2023-08-06T07:03:31;4.57;;;3.85;;
14342;SDS011;7255;53.596;9.960;2023-08-06T07:05:57;7.15;;;4.82;;
14342;SDS011;7255;53.596;9.960;2023-08-06T07:08:25;6.47;;;4.82;;
14342;SDS011;7255;53.596;9.960;2023-08-06T07:10:58;7.32;;;4.47;;
14342;SDS011;7255;53.596;9.960;2023-08-06T07:13:26;8.88;;;4.80;;
14342;SDS011;7255;53.596;9.960;2023-08-06T07:15:53;8.60;;;4.28;;
14342;SDS011;7255;53.596;9.960;2023-08-06T07:18:21;9.38;;;4.57;;
14342;SDS011;7255;53.596;9.960;2023-08-06T07:20:48;9.50;;;4.53;;
14342;SDS011;7255;53.596;9.960;2023-08-06T07:23:14;6.25;;;4.45;;
14342;SDS011;7255;53.596;9.960;2023-08-06T07:25:41;9.20;;;4.85;;
14342;SDS011;7255;53.596;9.960;2023-08-06T07:28:07;5.55;;;4.15;;
14342;SDS011;7255;53.596;9.960;2023-08-06T07:30:35;6.03;;;4.07;;
14342;SDS011;7255;53.596;9.960;2023-08-06T07:33:04;5.65;;;4.53;;
14342;SDS011;7255;53.596;9.960;2023-08-06T07:35:32;5.50;;;3.97;;
14342;SDS011;7255;53.596;9.960;2023-08-06T07:37:59;6.20;;;4.32;;
14342;SDS011;7255;53.596;9.960;2023-08-06T07:40:25;6.85;;;4.03;;
14342;SDS011;7255;53.596;9.960;2023-08-06T07:42:51;4.60;;;3.53;;
14342;SDS011;7255;53.596;9.960;2023-08-06T07:45:18;5.70;;;4.40;;
14342;SDS011;7255;53.596;9.960;2023-08-06T07:47:44;6.28;;;3.60;;
14342;SDS011;7255;53.596;9.960;2023-08-06T07:50:11;6.28;;;4.82;;
14342;SDS011;7255;53.596;9.960;2023-08-06T07:52:38;5.57;;;4.10;;
14342;SDS011;7255;53.596;9.960;2023-08-06T07:55:05;5.50;;;4.03;;
14342;SDS011;7255;53.596;9.960;2023-08-06T07:57:31;5.15;;;4.25;;
14342;SDS011;7255;53.596;9.960;2023-08-06T07:59:59;5.85;;;4.20;;
14342;SDS011;7255;53.596;9.960;2023-08-06T08:02:25;4.50;;;3.87;;
14342;SDS011;7255;53.596;9.960;2023-08-06T08:04:51;4.95;;;4.20;;
14342;SDS011;7255;53.596;9.960;2023-08-06T08:07:18;4.55;;;3.45;;
14342;SDS011;7255;53.596;9.960;2023-08-06T08:09:46;6.00;;;4.00;;
14342;SDS011;7255;53.596;9.960;2023-08-06T08:12:13;3.42;;;3.10;;
14342;SDS011;7255;53.596;9.960;2023-08-06T08:14:39;4.35;;;3.55;;
14342;SDS011;7255;53.596;9.960;2023-08-06T08:17:06;4.70;;;4.00;;
14342;SDS011;7255;53.596;9.960;2023-08-06T08:19:32;6.87;;;4.22;;
14342;SDS011;7255;53.596;9.960;2023-08-06T08:21:59;9.25;;;3.97;;
14342;SDS011;7255;53.596;9.960;2023-08-06T08:24:25;6.68;;;3.58;;
14342;SDS011;7255;53.596;9.960;2023-08-06T08:26:53;4.18;;;3.78;;
14342;SDS011;7255;53.596;9.960;2023-08-06T08:29:19;9.98;;;4.00;;
14342;SDS011;7255;53.596;9.960;2023-08-06T08:31:46;7.00;;;3.78;;
14342;SDS011;7255;53.596;9.960;2023-08-06T08:34:14;5.18;;;3.72;;
14342;SDS011;7255;53.596;9.960;2023-08-06T08:36:40;5.00;;;3.67;;
14342;SDS011;7255;53.596;9.960;2023-08-06T08:39:06;6.12;;;3.83;;
14342;SDS011;7255;53.596;9.960;2023-08-06T08:41:33;4.87;;;4.00;;
14342;SDS011;7255;53.596;9.960;2023-08-06T08:44:03;5.87;;;3.62;;
14342;SDS011;7255;53.596;9.960;2023-08-06T08:46:33;5.30;;;3.83;;
14342;SDS011;7255;53.596;9.960;2023-08-06T08:49:02;7.97;;;3.45;;
14342;SDS011;7255;53.596;9.960;2023-08-06T08:51:28;7.22;;;3.62;;
14342;SDS011;7255;53.596;9.960;2023-08-06T08:53:55;4.95;;;3.62;;
14342;SDS011;7255;53.596;9.960;2023-08-06T08:56:22;4.22;;;3.30;;
14342;SDS011;7255;53.596;9.960;2023-08-06T08:58:49;7.15;;;4.00;;
14342;SDS011;7255;53.596;9.960;2023-08-06T09:01:18;4.50;;;3.08;;
14342;SDS011;7255;53.596;9.960;2023-08-06T09:03:44;6.53;;;4.50;;
14342;SDS011;7255;53.596;9.960;2023-08-06T09:06:12;5.55;;;3.90;;
14342;SDS011;7255;53.596;9.960;2023-08-06T09:08:41;3.78;;;3.45;;
14342;SDS011;7255;53.596;9.960;2023-08-06T09:11:13;6.40;;;4.05;;
14342;SDS011;7255;53.596;9.960;2023-08-06T09:13:39;6.82;;;4.70;;
14342;SDS011;7255;53.596;9.960;2023-08-06T09:16:05;5.62;;;4.15;;
14342;SDS011;7255;53.596;9.960;2023-08-06T09:18:33;8.05;;;4.22;;
14342;SDS011;7255;53.596;9.960;2023-08-06T09:20:59;4.47;;;4.07;;
14342;SDS011;7255;53.596;9.960;2023-08-06T09:23:29;8.77;;;4.22;;
14342;SDS011;7255;53.596;9.960;2023-08-06T09:25:58;4.78;;;3.80;;
14342;SDS011;7255;53.596;9.960;2023-08-06T09:28:24;5.72;;;4.00;;
14342;SDS011;7255;53.596;9.960;2023-08-06T09:31:02;4.75;;;4.22;;
14342;SDS011;7255;53.596;9.960;2023-08-06T09:33:28;3.80;;;3.50;;
14342;SDS011;7255;53.596;9.960;2023-08-06T09:35:56;3.92;;;3.53;;
14342;SDS011;7255;53.596;9.960;2023-08-06T09:38:22;5.57;;;3.83;;
14342;SDS011;7255;53.596;9.960;2023-08-06T09:40:49;4.18;;;3.37;;
14342;SDS011;7255;53.596;9.960;2023-08-06T09:43:15;6.35;;;3.40;;
14342;SDS011;7255;53.596;9.960;2023-08-06T09:45:41;5.80;;;3.78;;
14342;SDS011;7255;53.596;9.960;2023-08-06T09:48:09;6.78;;;3.75;;
14342;SDS011;7255;53.596;9.960;2023-08-06T09:50:37;6.28;;;3.70;;
14342;SDS011;7255;53.596;9.960;2023-08-06T09:53:06;5.25;;;3.40;;
14342;SDS011;7255;53.596;9.960;2023-08-06T09:55:33;8.93;;;4.10;;
14342;SDS011;7255;53.596;9.960;2023-08-06T09:58:01;9.30;;;4.25;;
14342;SDS011;7255;53.596;9.960;2023-08-06T10:00:27;5.37;;;4.45;;
14342;SDS011;7255;53.596;9.960;2023-08-06T10:02:55;5.75;;;4.95;;
14342;SDS011;7255;53.596;9.960;2023-08-06T10:05:25;9.63;;;4.28;;
14342;SDS011;7255;53.596;9.960;2023-08-06T10:07:53;3.90;;;3.50;;
14342;SDS011;7255;53.596;9.960;2023-08-06T10:10:22;6.65;;;3.90;;
14342;SDS011;7255;53.596;9.960;2023-08-06T10:12:49;6.37;;;3.95;;
14342;SDS011;7255;53.596;9.960;2023-08-06T10:15:18;7.68;;;4.15;;
14342;SDS011;7255;53.596;9.960;2023-08-06T10:17:48;5.07;;;4.50;;
14342;SDS011;7255;53.596;9.960;2023-08-06T10:20:18;7.15;;;3.95;;
14342;SDS011;7255;53.596;9.960;2023-08-06T10:22:46;4.95;;;4.32;;
14342;SDS011;7255;53.596;9.960;2023-08-06T10:25:28;6.80;;;3.97;;
14342;SDS011;7255;53.596;9.960;2023-08-06T10:27:56;6.40;;;4.28;;
14342;SDS011;7255;53.596;9.960;2023-08-06T10:30:23;6.20;;;4.68;;
14342;SDS011;7255;53.596;9.960;2023-08-06T10:32:51;5.15;;;4.20;;
14342;SDS011;7255;53.596;9.960;2023-08-06T10:35:28;5.05;;;4.00;;
14342;SDS011;7255;53.596;9.960;2023-08-06T10:37:57;4.90;;;4.18;;
14342;SDS011;7255;53.596;9.960;2023-08-06T10:40:24;10.48;;;4.70;;
14342;SDS011;7255;53.596;9.960;2023-08-06T10:42:52;5.87;;;4.15;;
14342;SDS011;7255;53.596;9.960;2023-08-06T10:45:18;4.78;;;4.25;;
14342;SDS011;7255;53.596;9.960;2023-08-06T10:47:46;4.82;;;4.00;;
14342;SDS011;7255;53.596;9.960;2023-08-06T10:50:12;8.00;;;3.80;;
14342;SDS011;7255;53.596;9.960;2023-08-06T10:52:41;7.37;;;4.05;;
14342;SDS011;7255;53.596;9.960;2023-08-06T10:55:08;5.28;;;3.75;;
14342;SDS011;7255;53.596;9.960;2023-08-06T10:57:35;6.10;;;4.07;;
14342;SDS011;7255;53.596;9.960;2023-08-06T11:00:03;4.55;;;4.15;;
14342;SDS011;7255;53.596;9.960;2023-08-06T11:02:32;6.87;;;4.40;;
14342;SDS011;7255;53.596;9.960;2023-08-06T11:05:04;4.90;;;4.40;;
14342;SDS011;7255;53.596;9.960;2023-08-06T11:07:31;8.98;;;4.78;;
14342;SDS011;7255;53.596;9.960;2023-08-06T11:10:00;5.65;;;5.07;;
14342;SDS011;7255;53.596;9.960;2023-08-06T11:12:28;5.82;;;4.55;;
14342;SDS011;7255;53.596;9.960;2023-08-06T11:14:54;5.68;;;4.60;;
14342;SDS011;7255;53.596;9.960;2023-08-06T11:17:22;5.72;;;5.12;;
14342;SDS011;7255;53.596;9.960;2023-08-06T11:19:48;6.15;;;4.50;;
14342;SDS011;7255;53.596;9.960;2023-08-06T11:22:15;6.87;;;4.57;;
14342;SDS011;7255;53.596;9.960;2023-08-06T11:24:42;5.70;;;4.93;;
14342;SDS011;7255;53.596;9.960;2023-08-06T11:27:11;6.35;;;4.62;;
14342;SDS011;7255;53.596;9.960;2023-08-06T11:29:39;5.75;;;4.90;;
14342;SDS011;7255;53.596;9.960;2023-08-06T11:32:06;8.20;;;4.60;;
14342;SDS011;7255;53.596;9.960;2023-08-06T11:34:34;5.43;;;4.68;;
14342;SDS011;7255;53.596;9.960;2023-08-06T11:37:02;5.05;;;4.00;;
14342;SDS011;7255;53.596;9.960;2023-08-06T11:39:29;5.25;;;4.75;;
14342;SDS011;7255;53.596;9.960;2023-08-06T11:41:56;7.40;;;4.80;;
14342;SDS011;7255;53.596;9.960;2023-08-06T11:44:25;6.30;;;4.47;;
14342;SDS011;7255;53.596;9.960;2023-08-06T11:46:52;5.05;;;4.25;;
14342;SDS011;7255;53.596;9.960;2023-08-06T11:49:21;6.57;;;5.40;;
14342;SDS011;7255;53.596;9.960;2023-08-06T11:52:08;6.15;;;5.40;;
14342;SDS011;7255;53.596;9.960;2023-08-06T11:54:37;5.55;;;4.82;;
14342;SDS011;7255;53.596;9.960;2023-08-06T11:57:03;5.53;;;4.55;;
14342;SDS011;7255;53.596;9.960;2023-08-06T11:59:31;5.78;;;4.65;;
14342;SDS011;7255;53.596;9.960;2023-08-06T12:01:57;5.30;;;4.37;;
14342;SDS011;7255;53.596;9.960;2023-08-06T12:04:25;5.25;;;4.40;;
14342;SDS011;7255;53.596;9.960;2023-08-06T12:06:52;5.65;;;4.50;;
14342;SDS011;7255;53.596;9.960;2023-08-06T12:09:19;5.60;;;5.05;;
14342;SDS011;7255;53.596;9.960;2023-08-06T12:11:46;5.90;;;4.60;;
14342;SDS011;7255;53.596;9.960;2023-08-06T12:14:12;6.60;;;4.95;;
14342;SDS011;7255;53.596;9.960;2023-08-06T12:16:38;8.02;;;4.40;;
14342;SDS011;7255;53.596;9.960;2023-08-06T12:19:04;6.43;;;4.87;;
14342;SDS011;7255;53.596;9.960;2023-08-06T12:21:31;5.55;;;4.80;;
14342;SDS011;7255;53.596;9.960;2023-08-06T12:23:57;5.75;;;4.75;;
14342;SDS011;7255;53.596;9.960;2023-08-06T12:26:25;8.35;;;4.43;;
14342;SDS011;7255;53.596;9.960;2023-08-06T12:28:51;5.32;;;3.90;;
14342;SDS011;7255;53.596;9.960;2023-08-06T12:31:20;6.15;;;4.10;;
14342;SDS011;7255;53.596;9.960;2023-08-06T12:33:46;4.80;;;3.62;;
14342;SDS011;7255;53.596;9.960;2023-08-06T12:36:12;6.05;;;4.37;;
14342;SDS011;7255;53.596;9.960;2023-08-06T12:38:39;5.40;;;3.80;;
14342;SDS011;7255;53.596;9.960;2023-08-06T12:41:05;4.30;;;3.47;;
14342;SDS011;7255;53.596;9.960;2023-08-06T12:43:33;3.97;;;3.58;;
14342;SDS011;7255;53.596;9.960;2023-08-06T12:45:59;4.20;;;3.80;;
14342;SDS011;7255;53.596;9.960;2023-08-06T12:48:25;5.68;;;3.30;;
14342;SDS011;7255;53.596;9.960;2023-08-06T12:50:52;5.60;;;4.43;;
14342;SDS011;7255;53.596;9.960;2023-08-06T12:53:18;4.60;;;3.58;;
14342;SDS011;7255;53.596;9.960;2023-08-06T12:55:46;4.70;;;3.55;;
14342;SDS011;7255;53.596;9.960;2023-08-06T12:58:12;5.03;;;3.37;;
14342;SDS011;7255;53.596;9.960;2023-08-06T13:00:40;4.40;;;3.85;;
14342;SDS011;7255;53.596;9.960;2023-08-06T13:03:06;3.70;;;3.15;;
14342;SDS011;7255;53.596;9.960;2023-08-06T13:05:32;4.97;;;3.70;;
14342;SDS011;7255;53.596;9.960;2023-08-06T13:07:59;5.72;;;3.05;;
14342;SDS011;7255;53.596;9.960;2023-08-06T13:10:25;4.20;;;3.50;;
14342;SDS011;7255;53.596;9.960;2023-08-06T13:12:53;5.30;;;3.30;;
14342;SDS011;7255;53.596;9.960;2023-08-06T13:15:20;6.12;;;3.75;;
14342;SDS011;7255;53.596;9.960;2023-08-06T13:17:48;4.78;;;3.40;;
14342;SDS011;7255;53.596;9.960;2023-08-06T13:20:14;4.82;;;3.53;;
14342;SDS011;7255;53.596;9.960;2023-08-06T13:22:41;5.20;;;3.75;;
14342;SDS011;7255;53.596;9.960;2023-08-06T13:25:07;3.85;;;3.45;;
14342;SDS011;7255;53.596;9.960;2023-08-06T13:27:33;4.87;;;2.92;;
14342;SDS011;7255;53.596;9.960;2023-08-06T13:29:59;3.58;;;2.92;;
14342;SDS011;7255;53.596;9.960;2023-08-06T13:32:26;6.12;;;3.22;;
14342;SDS011;7255;53.596;9.960;2023-08-06T13:34:54;3.62;;;2.65;;
14342;SDS011;7255;53.596;9.960;2023-08-06T13:37:20;3.12;;;2.80;;
14342;SDS011;7255;53.596;9.960;2023-08-06T13:39:47;4.53;;;2.70;;
14342;SDS011;7255;53.596;9.960;2023-08-06T13:42:13;5.25;;;2.80;;
14342;SDS011;7255;53.596;9.960;2023-08-06T13:44:39;3.87;;;2.60;;
14342;SDS011;7255;53.596;9.960;2023-08-06T13:47:05;5.87;;;2.90;;
14342;SDS011;7255;53.596;9.960;2023-08-06T13:49:32;3.03;;;2.70;;
14342;SDS011;7255;53.596;9.960;2023-08-06T13:51:59;3.75;;;2.83;;
14342;SDS011;7255;53.596;9.960;2023-08-06T13:54:26;2.87;;;2.50;;
14342;SDS011;7255;53.596;9.960;2023-08-06T13:56:52;2.83;;;2.47;;
14342;SDS011;7255;53.596;9.960;2023-08-06T13:59:18;3.37;;;2.55;;
14342;SDS011;7255;53.596;9.960;2023-08-06T14:01:44;2.87;;;2.40;;
14342;SDS011;7255;53.596;9.960;2023-08-06T14:04:11;2.65;;;2.45;;
14342;SDS011;7255;53.596;9.960;2023-08-06T14:06:38;2.97;;;2.70;;
14342;SDS011;7255;53.596;9.960;2023-08-06T14:09:05;3.15;;;2.00;;
14342;SDS011;7255;53.596;9.960;2023-08-06T14:11:32;2.45;;;2.25;;
14342;SDS011;7255;53.596;9.960;2023-08-06T14:13:59;2.58;;;2.10;;
14342;SDS011;7255;53.596;9.960;2023-08-06T14:16:25;2.42;;;1.92;;
14342;SDS011;7255;53.596;9.960;2023-08-06T14:18:52;4.12;;;2.05;;
14342;SDS011;7255;53.596;9.960;2023-08-06T14:21:18;2.70;;;1.83;;
14342;SDS011;7255;53.596;9.960;2023-08-06T14:23:45;3.20;;;2.10;;
14342;SDS011;7255;53.596;9.960;2023-08-06T14:26:12;3.00;;;2.03;;
14342;SDS011;7255;53.596;9.960;2023-08-06T14:28:40;3.28;;;2.10;;
14342;SDS011;7255;53.596;9.960;2023-08-06T14:31:06;2.75;;;1.90;;
14342;SDS011;7255;53.596;9.960;2023-08-06T14:33:32;2.42;;;2.20;;
14342;SDS011;7255;53.596;9.960;2023-08-06T14:35:59;4.30;;;2.00;;
14342;SDS011;7255;53.596;9.960;2023-08-06T14:38:25;2.20;;;2.00;;
14342;SDS011;7255;53.596;9.960;2023-08-06T14:40:52;3.45;;;2.17;;
14342;SDS011;7255;53.596;9.960;2023-08-06T14:43:19;2.92;;;2.28;;
14342;SDS011;7255;53.596;9.960;2023-08-06T14:45:46;2.35;;;2.08;;
14342;SDS011;7255;53.596;9.960;2023-08-06T14:48:12;2.58;;;2.25;;
14342;SDS011;7255;53.596;9.960;2023-08-06T14:50:38;3.85;;;2.17;;
14342;SDS011;7255;53.596;9.960;2023-08-06T14:53:06;1.90;;;1.65;;
14342;SDS011;7255;53.596;9.960;2023-08-06T14:55:33;6.85;;;2.17;;
14342;SDS011;7255;53.596;9.960;2023-08-06T14:58:00;2.15;;;1.90;;
14342;SDS011;7255;53.596;9.960;2023-08-06T15:00:28;2.03;;;1.83;;